.
WxDataArchive / Data Records for 2013-05-22
2013-05-21 May 2013 2013-05-23

Data Records for Wednesday, 22 May 2013

Time	Temp	Chill	HIndex	Humid	Dewpt	 Wind 	HiWind	WindDir	Rain 	Barom 
-----	----	-----	------	-----	-----	------	------	-------	-----	----- 
00:00	73.5	73.5	73.5	64	60.6	0	1	270	0.00	29.738 
00:05	73.5	73.5	73.5	64	60.6	0	1	270	0.00	29.738 
00:10	73.5	73.5	73.5	64	60.6	0	2	270	0.00	29.738 
00:15	73.3	73.3	73.3	65	60.8	0	2	270	0.00	29.735 
00:20	73.3	73.3	73.3	65	60.8	0	1	270	0.00	29.735 
00:25	73.2	73.2	73.2	65	60.7	0	3	270	0.00	29.735 
00:30	73.2	73.2	73.2	65	60.7	0	1	270	0.00	29.728 
00:35	73.0	73.0	73.0	66	61.0	0	2	270	0.00	29.728 
00:40	72.8	72.8	72.8	66	60.8	0	2	248	0.00	29.728 
00:45	72.8	72.8	72.8	66	60.8	0	1	248	0.00	29.736 
00:50	72.7	72.7	72.7	66	60.7	0	1	248	0.00	29.736 
00:55	72.5	72.5	72.5	66	60.5	0	1	248	0.00	29.736 
01:00	72.3	72.3	72.3	66	60.3	0	1	248	0.00	29.737 
01:05	72.3	72.3	72.3	67	60.7	0	1	248	0.00	29.737 
01:10	72.1	72.1	72.1	67	60.5	0	2	248	0.00	29.737 
01:15	72.0	72.0	72.0	67	60.4	0	2	248	0.00	29.727 
01:20	72.0	72.0	72.0	68	60.8	0	2	248	0.00	29.727 
01:25	71.8	71.8	71.8	68	60.7	0	1	248	0.00	29.727 
01:30	71.8	71.8	71.8	68	60.7	0	2	248	0.00	29.723 
01:35	71.6	71.6	71.6	68	60.5	0	1	248	0.00	29.723 
01:40	71.5	71.5	71.5	69	60.8	0	1	248	0.00	29.723 
01:45	71.3	71.3	71.3	69	60.6	0	0	---	0.00	29.720 
01:50	70.9	70.9	70.9	70	60.6	0	1	248	0.00	29.720 
01:55	70.8	70.8	70.8	70	60.5	0	1	248	0.00	29.720 
02:00	70.6	70.6	70.6	71	60.7	0	1	248	0.00	29.726 
02:05	70.4	70.4	70.4	71	60.5	0	1	248	0.00	29.726 
02:10	70.3	70.3	70.3	71	60.4	0	1	248	0.00	29.726 
02:15	70.3	70.3	70.3	71	60.4	0	2	248	0.00	29.723 
02:20	70.1	70.1	70.1	72	60.6	0	2	248	0.00	29.723 
02:25	70.1	70.1	70.1	72	60.6	0	1	248	0.00	29.723 
02:30	69.9	69.9	69.9	72	60.4	0	1	248	0.00	29.715 
02:35	69.9	69.9	69.9	72	60.4	0	1	248	0.00	29.715 
02:40	69.8	69.8	69.8	72	60.4	0	0	---	0.00	29.715 
02:45	69.8	69.8	69.8	73	60.7	0	1	248	0.00	29.711 
02:50	69.8	69.8	69.8	73	60.7	0	1	248	0.00	29.711 
02:55	69.8	69.8	69.8	72	60.4	0	1	248	0.00	29.711 
03:00	69.9	69.9	69.9	72	60.4	0	1	248	0.00	29.718 
03:05	69.9	69.9	69.9	72	60.4	0	1	248	0.00	29.718 
03:10	69.9	69.9	69.9	72	60.4	0	2	248	0.00	29.718 
03:15	69.9	69.9	69.9	72	60.4	0	1	248	0.00	29.713 
03:20	69.9	69.9	69.9	72	60.4	0	1	248	0.00	29.713 
03:25	69.9	69.9	69.9	73	60.8	0	1	248	0.00	29.713 
03:30	69.9	69.9	69.9	73	60.8	0	1	248	0.00	29.708 
03:35	69.9	69.9	69.9	73	60.8	0	1	248	0.00	29.708 
03:40	69.9	69.9	69.9	73	60.8	0	1	248	0.00	29.708 
03:45	69.9	69.9	69.9	73	60.8	0	4	90	0.00	29.706 
03:50	69.9	69.9	69.9	73	60.8	0	1	90	0.00	29.706 
03:55	69.9	69.9	69.9	73	60.8	0	2	90	0.00	29.706 
04:00	69.9	69.9	69.9	73	60.8	0	0	---	0.00	29.701 
04:05	69.9	69.9	69.9	73	60.8	0	1	90	0.00	29.701 
04:10	69.9	69.9	69.9	73	60.8	0	0	---	0.00	29.701 
04:15	69.9	69.9	69.9	73	60.8	0	1	90	0.00	29.691 
04:20	69.9	69.9	69.9	74	61.2	0	1	90	0.00	29.691 
04:25	69.8	69.8	69.8	74	61.1	0	0	---	0.00	29.691 
04:30	69.8	69.8	69.8	74	61.1	0	1	90	0.00	29.698 
04:35	69.8	69.8	69.8	74	61.1	0	1	90	0.00	29.698 
04:40	69.6	69.6	69.6	75	61.3	0	2	90	0.00	29.698 
04:45	69.6	69.6	69.6	76	61.7	0	3	90	0.00	29.696 
04:50	69.6	69.6	69.6	76	61.7	0	2	90	0.00	29.696 
04:55	69.6	69.6	69.6	76	61.7	0	2	90	0.00	29.696 
05:00	69.6	69.6	69.6	77	62.1	0	2	90	0.00	29.699 
05:05	69.6	69.6	69.6	77	62.1	0	3	90	0.00	29.699 
05:10	69.6	69.6	69.6	77	62.1	0	1	90	0.00	29.699 
05:15	69.6	69.6	69.6	77	62.1	0	1	90	0.00	29.693 
05:20	69.6	69.6	69.6	77	62.1	0	2	90	0.00	29.693 
05:25	69.6	69.6	69.6	78	62.4	0	2	90	0.00	29.693 
05:30	69.6	69.6	69.6	78	62.4	0	1	90	0.00	29.691 
05:35	69.6	69.6	69.6	78	62.4	0	2	90	0.00	29.691 
05:40	69.6	69.6	69.6	78	62.4	0	2	90	0.00	29.691 
05:45	69.6	69.6	69.6	78	62.4	0	1	90	0.00	29.694 
05:50	69.4	69.4	69.4	78	62.2	0	3	90	0.00	29.694 
05:55	69.4	69.4	69.4	78	62.2	0	2	68	0.00	29.694 
06:00	69.4	69.4	69.4	78	62.2	0	1	68	0.00	29.702 
06:05	69.4	69.4	69.4	78	62.2	0	3	68	0.00	29.702 
06:10	69.3	69.3	69.3	79	62.5	1	3	68	0.00	29.702 
06:15	69.3	69.3	69.3	79	62.5	0	2	68	0.00	29.707 
06:20	69.3	69.3	69.3	79	62.5	0	3	270	0.00	29.707 
06:25	69.3	69.3	69.3	79	62.5	0	2	270	0.00	29.707 
06:30	69.3	69.3	69.3	79	62.5	1	5	270	0.00	29.709 
06:35	69.3	69.3	69.3	78	62.1	0	3	292	0.00	29.709 
06:40	69.1	69.1	69.1	78	61.9	0	3	292	0.00	29.709 
06:45	69.1	69.1	69.1	78	61.9	0	3	292	0.00	29.712 
06:50	69.1	69.1	69.1	78	61.9	1	3	292	0.00	29.712 
06:55	69.1	69.1	69.1	78	61.9	0	2	292	0.00	29.712 
07:00	69.1	69.1	69.1	78	61.9	0	0	---	0.00	29.712 
07:05	68.9	68.9	68.9	78	61.7	0	3	248	0.00	29.712 
07:10	68.9	68.9	68.9	78	61.7	0	2	225	0.00	29.712 
07:15	68.8	68.8	68.8	78	61.7	0	2	225	0.00	29.713 
07:20	68.8	68.8	68.8	77	61.3	1	3	248	0.00	29.713 
07:25	68.8	68.8	68.8	77	61.3	0	2	248	0.00	29.713 
07:30	68.8	68.8	68.8	77	61.3	0	1	248	0.00	29.717 
07:35	68.8	68.8	68.8	78	61.7	0	3	248	0.00	29.717 
07:40	68.8	68.8	68.8	78	61.7	0	1	270	0.00	29.717 
07:45	68.8	68.8	68.8	78	61.7	0	1	270	0.00	29.720 
07:50	68.6	68.6	68.6	79	61.8	0	1	270	0.00	29.720 
07:55	68.6	68.6	68.6	79	61.8	1	3	270	0.00	29.720 
08:00	68.4	68.4	68.4	79	61.6	0	2	315	0.00	29.714 
08:05	68.4	68.4	68.4	79	61.6	0	1	315	0.00	29.714 
08:10	68.4	68.4	68.4	79	61.6	0	3	248	0.00	29.714 
08:15	68.4	68.4	68.4	80	62.0	0	1	248	0.00	29.716 
08:20	68.4	68.4	68.4	80	62.0	0	2	248	0.00	29.716 
08:25	68.4	68.4	68.4	80	62.0	0	3	270	0.00	29.716 
08:30	68.4	68.4	68.4	80	62.0	0	2	270	0.00	29.711 
08:35	68.4	68.4	68.4	80	62.0	0	2	270	0.00	29.711 
08:40	68.6	68.6	68.6	80	62.2	0	1	270	0.00	29.711 
08:45	68.6	68.6	68.6	80	62.2	0	1	270	0.00	29.706 
08:50	68.8	68.8	68.8	80	62.4	0	2	270	0.00	29.706 
08:55	68.9	68.9	68.9	80	62.5	0	2	248	0.00	29.706 
09:00	69.1	69.1	69.1	80	62.7	0	3	248	0.00	29.700 
09:05	69.3	69.3	69.3	80	62.9	0	2	292	0.00	29.700 
09:10	69.4	69.4	69.4	80	63.0	1	3	22	0.00	29.700 
09:15	69.8	69.8	69.8	79	63.0	1	4	112	0.00	29.700 
09:20	70.1	70.1	70.1	79	63.3	1	3	112	0.00	29.700 
09:25	70.6	70.6	70.6	78	63.4	1	3	90	0.00	29.700 
09:30	70.8	70.8	70.8	76	62.8	1	6	90	0.00	29.702 
09:35	70.8	70.8	70.8	76	62.8	1	4	90	0.00	29.702 
09:40	70.9	70.9	70.9	75	62.6	1	3	270	0.00	29.702 
09:45	71.3	71.3	71.3	74	62.6	1	5	112	0.00	29.700 
09:50	71.5	71.5	71.5	73	62.4	1	4	112	0.00	29.700 
09:55	71.1	71.1	71.1	73	62.0	0	2	68	0.00	29.700 
10:00	70.8	70.8	70.8	74	62.1	1	5	270	0.00	29.701 
10:05	70.4	70.4	70.4	75	62.1	1	9	90	0.00	29.701 
10:10	70.3	70.3	70.3	75	62.0	1	3	90	0.00	29.701 
10:15	70.3	70.3	70.3	76	62.4	0	3	90	0.00	29.701 
10:20	70.3	70.3	70.3	76	62.4	0	2	112	0.00	29.701 
10:25	70.4	70.4	70.4	74	61.7	1	5	292	0.00	29.701 
10:30	70.6	70.6	70.6	73	61.5	1	6	90	0.00	29.696 
10:35	70.8	70.8	70.8	74	62.1	1	4	270	0.00	29.696 
10:40	70.8	70.8	70.8	74	62.1	1	4	112	0.00	29.696 
10:45	70.9	70.9	70.9	74	62.2	2	5	68	0.00	29.692 
10:50	70.9	70.9	70.9	73	61.8	2	7	90	0.00	29.692 
10:55	71.3	71.3	71.3	73	62.2	2	4	90	0.00	29.692 
11:00	71.6	71.6	71.6	73	62.5	1	6	45	0.00	29.682 
11:05	71.6	71.6	71.6	72	62.1	1	6	112	0.00	29.682 
11:10	71.6	71.6	71.6	73	62.5	2	5	90	0.00	29.682 
11:15	71.5	71.5	71.5	73	62.4	1	4	90	0.00	29.671 
11:20	71.5	71.5	71.5	74	62.8	2	5	68	0.00	29.671 
11:25	71.3	71.3	71.3	73	62.2	2	7	112	0.00	29.671 
11:30	71.6	71.6	71.6	74	62.9	1	4	90	0.00	29.684 
11:35	72.3	72.3	72.3	69	61.5	3	6	90	0.00	29.684 
11:40	72.7	72.7	72.7	68	61.5	3	7	90	0.00	29.684 
11:45	72.7	72.7	72.7	68	61.5	3	7	270	0.00	29.689 
11:50	72.3	72.3	72.3	69	61.5	2	10	68	0.00	29.689 
11:55	72.1	72.1	72.1	71	62.2	2	6	90	0.00	29.689 
12:00	72.0	72.0	72.0	71	62.1	2	6	248	0.00	29.705 
12:05	72.0	72.0	72.0	72	62.5	2	11	270	0.00	29.705 
12:10	72.1	72.1	72.1	74	63.3	1	5	292	0.00	29.705 
12:15	72.7	72.7	72.7	72	63.1	1	4	248	0.00	29.706 
12:20	73.0	73.0	73.0	71	63.0	1	5	248	0.00	29.706 
12:25	73.9	73.9	73.9	69	63.1	1	4	45	0.00	29.706 
12:30	74.6	74.6	74.6	65	62.0	2	9	90	0.00	29.697 
12:35	75.4	75.4	77.5	62	61.5	2	5	90	0.00	29.697 
12:40	76.0	76.0	78.0	60	61.1	2	11	90	0.00	29.697 
12:45	76.0	76.0	78.0	58	60.1	1	4	270	0.00	29.694 
12:50	76.0	76.0	78.0	60	61.1	1	5	315	0.00	29.694 
12:55	76.5	76.5	78.4	58	60.6	2	6	248	0.00	29.694 
13:00	77.0	77.0	78.7	56	60.1	2	5	68	0.00	29.691 
13:05	77.2	77.2	78.9	57	60.8	1	4	270	0.00	29.691 
13:10	77.2	77.2	78.8	53	58.7	2	6	248	0.00	29.691 
13:15	76.8	76.8	78.6	54	58.9	2	6	248	0.00	29.683 
13:20	76.8	76.8	78.6	54	58.9	2	5	270	0.00	29.683 
13:25	76.7	76.7	78.5	54	58.8	1	4	270	0.00	29.683 
13:30	77.0	77.0	78.7	53	58.5	2	6	248	0.00	29.681 
13:35	77.0	77.0	78.6	51	57.5	1	4	270	0.00	29.681 
13:40	77.2	77.2	78.8	52	58.2	2	9	248	0.00	29.681 
13:45	76.8	76.8	78.5	51	57.3	2	6	248	0.00	29.674 
13:50	76.5	76.5	78.4	52	57.5	1	4	68	0.00	29.674 
13:55	76.5	76.5	78.3	51	57.0	2	5	270	0.00	29.674 
14:00	76.5	76.5	78.4	53	58.1	1	9	292	0.00	29.675 
14:05	76.1	76.1	78.1	53	57.7	2	6	270	0.00	29.675 
14:10	76.0	76.0	78.1	53	57.6	1	4	270	0.00	29.675 
14:15	76.0	76.0	78.1	55	58.6	1	4	270	0.00	29.672 
14:20	76.5	76.5	78.4	54	58.6	2	5	270	0.00	29.672 
14:25	76.5	76.5	78.4	52	57.5	2	6	248	0.00	29.672 
14:30	76.5	76.5	78.4	53	58.1	2	6	248	0.00	29.671 
14:35	76.3	76.3	78.2	53	57.9	1	3	270	0.00	29.671 
14:40	76.1	76.1	78.1	54	58.2	2	6	248	0.00	29.671 
14:45	75.6	75.6	77.8	55	58.3	2	9	292	0.00	29.672 
14:50	75.3	75.3	77.7	55	58.0	2	6	248	0.00	29.672 
14:55	75.1	75.1	77.6	56	58.3	1	4	270	0.00	29.672 
15:00	75.1	75.1	77.6	56	58.3	1	5	270	0.00	29.669 
15:05	74.9	74.9	74.9	56	58.1	1	4	248	0.00	29.669 
15:10	74.6	74.6	74.6	63	61.2	3	8	248	0.01	29.669 
15:15	70.9	70.9	70.9	74	62.2	3	10	248	0.02	29.699 
15:20	68.9	68.9	68.9	81	62.8	1	4	248	0.02	29.699 
15:25	67.6	67.6	67.6	84	62.6	2	6	248	0.01	29.699 
15:30	67.3	67.3	67.3	87	63.3	2	5	248	0.00	29.697 
15:35	67.4	67.4	67.4	89	64.0	1	3	248	0.00	29.697 
15:40	67.8	67.8	67.8	89	64.4	2	6	248	0.00	29.697 
15:45	67.9	67.9	67.9	89	64.5	3	9	270	0.00	29.689 
15:50	68.3	68.3	68.3	89	64.9	2	7	270	0.00	29.689 
15:55	68.9	68.9	68.9	89	65.5	1	2	270	0.00	29.689 
16:00	69.6	69.6	69.6	87	65.6	1	4	270	0.00	29.684 
16:05	70.3	70.3	70.3	84	65.2	2	5	248	0.00	29.684 
16:10	70.9	70.9	70.9	81	64.8	1	4	248	0.00	29.684 
16:15	72.1	72.1	72.1	79	65.2	1	4	270	0.00	29.670 
16:20	73.0	73.0	73.0	72	63.4	2	5	270	0.00	29.670 
16:25	73.7	73.7	73.7	69	62.9	2	7	248	0.00	29.670 
16:30	74.6	74.6	74.6	68	63.3	2	5	292	0.00	29.659 
16:35	75.1	75.1	77.2	64	62.1	2	10	68	0.00	29.659 
16:40	75.6	75.6	77.6	64	62.5	2	5	270	0.00	29.659 
16:45	76.0	76.0	78.0	60	61.1	1	7	270	0.00	29.652 
16:50	75.8	75.8	77.9	56	59.0	3	10	248	0.00	29.652 
16:55	75.6	75.6	77.8	57	59.3	1	4	248	0.00	29.652 
17:00	75.3	75.3	77.6	57	59.0	2	5	248	0.00	29.654 
17:05	75.4	75.4	77.7	58	59.6	1	3	248	0.00	29.654 
17:10	75.6	75.6	77.8	56	58.8	2	5	270	0.00	29.654 
17:15	75.6	75.6	77.8	55	58.3	1	3	270	0.00	29.653 
17:20	75.6	75.6	77.8	56	58.8	1	5	248	0.00	29.653 
17:25	76.1	76.1	78.1	55	58.7	2	9	292	0.00	29.653 
17:30	76.5	76.5	78.4	53	58.1	2	6	248	0.00	29.641 
17:35	76.7	76.7	78.5	52	57.7	2	5	270	0.00	29.641 
17:40	77.0	77.0	78.7	52	58.0	2	6	270	0.00	29.641 
17:45	77.0	77.0	78.7	52	58.0	2	5	248	0.00	29.639 
17:50	76.7	76.7	78.5	52	57.7	2	5	248	0.00	29.639 
17:55	76.5	76.5	78.4	53	58.1	2	6	270	0.00	29.639 
18:00	76.0	76.0	78.1	53	57.6	2	5	248	0.00	29.637 
18:05	75.3	75.3	77.7	54	57.5	2	5	248	0.00	29.637 
18:10	74.2	74.2	74.2	55	57.0	4	13	270	0.00	29.637 
18:15	71.5	71.5	71.5	64	58.7	3	11	270	0.00	29.669 
18:20	69.1	69.1	69.1	72	59.7	3	6	292	0.00	29.669 
18:25	67.9	67.9	67.9	76	60.0	1	4	270	0.00	29.669 
18:30	67.4	67.4	67.4	77	59.9	1	4	270	0.00	29.667 
18:35	67.4	67.4	67.4	78	60.3	1	4	270	0.00	29.667 
18:40	67.9	67.9	67.9	78	60.8	2	4	270	0.00	29.667 
18:45	68.6	68.6	68.6	77	61.1	2	4	270	0.00	29.670 
18:50	69.1	69.1	69.1	76	61.2	1	4	270	0.00	29.670 
18:55	69.3	69.3	69.3	76	61.4	1	3	270	0.00	29.670 
19:00	69.6	69.6	69.6	75	61.3	2	5	270	0.00	29.673 
19:05	69.9	69.9	69.9	74	61.2	2	5	270	0.00	29.673 
19:10	70.1	70.1	70.1	74	61.4	1	4	270	0.00	29.673 
19:15	69.9	69.9	69.9	74	61.2	1	3	270	0.00	29.676 
19:20	69.8	69.8	69.8	73	60.7	1	4	270	0.00	29.676 
19:25	69.6	69.6	69.6	73	60.6	1	3	270	0.00	29.676 
19:30	69.6	69.6	69.6	73	60.6	1	3	270	0.00	29.679 
19:35	69.4	69.4	69.4	73	60.4	1	3	270	0.00	29.679 
19:40	69.4	69.4	69.4	73	60.4	0	2	270	0.00	29.679 
19:45	69.4	69.4	69.4	72	60.0	1	3	270	0.00	29.690 
19:50	69.4	69.4	69.4	72	60.0	1	3	270	0.00	29.690 
19:55	69.4	69.4	69.4	72	60.0	0	3	270	0.00	29.690 
20:00	69.4	69.4	69.4	72	60.0	1	4	270	0.00	29.694 
20:05	69.4	69.4	69.4	72	60.0	0	2	270	0.00	29.694 
20:10	69.4	69.4	69.4	72	60.0	0	2	270	0.00	29.694 
20:15	69.4	69.4	69.4	72	60.0	0	2	270	0.00	29.694 
20:20	69.3	69.3	69.3	72	59.9	0	1	270	0.00	29.694 
20:25	69.3	69.3	69.3	72	59.9	0	3	270	0.00	29.694 
20:30	69.1	69.1	69.1	72	59.7	0	2	270	0.00	29.701 
20:35	69.1	69.1	69.1	72	59.7	0	1	270	0.00	29.701 
20:40	69.1	69.1	69.1	72	59.7	0	2	270	0.00	29.701 
20:45	68.9	68.9	68.9	72	59.5	0	1	270	0.00	29.697 
20:50	68.9	68.9	68.9	72	59.5	0	2	270	0.00	29.697 
20:55	68.8	68.8	68.8	72	59.4	0	1	270	0.00	29.697 
21:00	68.6	68.6	68.6	72	59.2	0	0	---	0.00	29.694 
21:05	68.4	68.4	68.4	73	59.4	0	0	---	0.00	29.694 
21:10	68.3	68.3	68.3	73	59.3	0	0	---	0.00	29.694 
21:15	68.1	68.1	68.1	74	59.5	0	0	---	0.00	29.697 
21:20	67.8	67.8	67.8	74	59.2	0	1	270	0.00	29.697 
21:25	67.6	67.6	67.6	75	59.4	0	0	---	0.00	29.697 
21:30	67.4	67.4	67.4	75	59.2	0	0	---	0.00	29.693 
21:35	67.1	67.1	67.1	75	58.9	0	0	---	0.00	29.693 
21:40	66.9	66.9	66.9	76	59.1	0	0	---	0.00	29.693 
21:45	66.6	66.6	66.6	77	59.2	0	0	---	0.00	29.705 
21:50	66.4	66.4	66.4	77	59.0	0	0	---	0.00	29.705 
21:55	66.1	66.1	66.1	78	59.0	0	0	---	0.00	29.705 
22:00	66.0	66.0	66.0	78	58.9	0	0	---	0.00	29.708 
22:05	66.0	66.0	66.0	78	58.9	0	0	---	0.00	29.708 
22:10	65.8	65.8	65.8	79	59.1	0	0	---	0.00	29.708 
22:15	65.6	65.6	65.6	79	58.9	0	0	---	0.00	29.713 
22:20	65.6	65.6	65.6	80	59.3	0	0	---	0.00	29.713 
22:25	65.6	65.6	65.6	79	58.9	0	0	---	0.00	29.713 
22:30	65.8	65.8	65.8	79	59.1	0	1	270	0.00	29.720 
22:35	65.8	65.8	65.8	79	59.1	0	1	270	0.00	29.720 
22:40	66.0	66.0	66.0	79	59.3	0	1	270	0.00	29.720 
22:45	66.3	66.3	66.3	78	59.2	0	1	270	0.00	29.721 
22:50	66.4	66.4	66.4	78	59.3	0	1	270	0.00	29.721 
22:55	66.4	66.4	66.4	77	59.0	0	3	270	0.00	29.721 
23:00	66.6	66.6	66.6	77	59.2	0	1	270	0.00	29.722 
23:05	66.6	66.6	66.6	78	59.5	0	4	270	0.00	29.722 
23:10	66.4	66.4	66.4	78	59.3	1	3	270	0.00	29.722 
23:15	66.3	66.3	66.3	79	59.6	0	2	270	0.00	29.722 
23:20	66.0	66.0	66.0	80	59.6	0	2	270	0.00	29.722 
23:25	65.6	65.6	65.6	81	59.6	0	2	270	0.00	29.722 
23:30	65.5	65.5	65.5	81	59.5	0	1	270	0.00	29.721 
23:35	65.2	65.2	65.2	82	59.6	0	1	270	0.00	29.721 
23:40	65.0	65.0	65.0	82	59.4	0	1	270	0.00	29.721 
23:45	64.8	64.8	64.8	82	59.2	0	1	270	0.00	29.723 
23:50	64.8	64.8	64.8	83	59.5	0	1	270	0.00	29.723 
23:55	64.7	64.7	64.7	83	59.4	0	1	270	0.00	29.723 

CoCoRaHS
IN-AL-39
A2 Web Hosting
Creative Commons License
GoDaddy
search engine by freefind advanced

loaded 2018-11-22 05:56:07 • last modified 2010-11-18 10:43:29
Privacy PolicyDisclaimer
• wx.awcolley.com is powered by PmWiki v.2002016 •
• all content (unless otherwise noted) © 2018 A W Colley